sensor_id;sensor_type;location;lat;lon;timestamp;temperature;humidity
40636;DHT22;26642;55.766;37.828;2022-08-07T00:01:43;25.90;70.90
40636;DHT22;26642;55.766;37.828;2022-08-07T00:04:09;25.80;70.90
40636;DHT22;26642;55.766;37.828;2022-08-07T00:06:35;25.80;70.90
40636;DHT22;26642;55.766;37.828;2022-08-07T00:09:02;25.80;71.00
40636;DHT22;26642;55.766;37.828;2022-08-07T00:11:28;25.80;71.00
40636;DHT22;26642;55.766;37.828;2022-08-07T00:13:54;25.70;71.00
40636;DHT22;26642;55.766;37.828;2022-08-07T00:16:20;25.70;71.10
40636;DHT22;26642;55.766;37.828;2022-08-07T00:18:46;25.70;71.20
40636;DHT22;26642;55.766;37.828;2022-08-07T00:21:13;25.70;71.30
40636;DHT22;26642;55.766;37.828;2022-08-07T00:23:39;25.70;71.40
40636;DHT22;26642;55.766;37.828;2022-08-07T00:26:10;25.70;72.10
40636;DHT22;26642;55.766;37.828;2022-08-07T00:28:37;25.60;71.60
40636;DHT22;26642;55.766;37.828;2022-08-07T00:31:06;25.70;71.60
40636;DHT22;26642;55.766;37.828;2022-08-07T00:33:34;25.60;71.60
40636;DHT22;26642;55.766;37.828;2022-08-07T00:36:01;25.70;71.70
40636;DHT22;26642;55.766;37.828;2022-08-07T00:38:28;25.70;71.70
40636;DHT22;26642;55.766;37.828;2022-08-07T00:40:54;25.60;71.60
40636;DHT22;26642;55.766;37.828;2022-08-07T00:43:21;25.60;71.90
40636;DHT22;26642;55.766;37.828;2022-08-07T00:45:47;25.60;72.10
40636;DHT22;26642;55.766;37.828;2022-08-07T00:48:14;25.60;72.00
40636;DHT22;26642;55.766;37.828;2022-08-07T00:50:40;25.60;72.00
40636;DHT22;26642;55.766;37.828;2022-08-07T00:53:07;25.60;72.00
40636;DHT22;26642;55.766;37.828;2022-08-07T00:55:33;25.50;72.10
40636;DHT22;26642;55.766;37.828;2022-08-07T00:57:59;25.50;72.30
40636;DHT22;26642;55.766;37.828;2022-08-07T01:00:25;25.50;72.30
40636;DHT22;26642;55.766;37.828;2022-08-07T01:02:52;25.50;72.40
40636;DHT22;26642;55.766;37.828;2022-08-07T01:05:20;25.40;72.40
40636;DHT22;26642;55.766;37.828;2022-08-07T01:07:46;25.40;72.50
40636;DHT22;26642;55.766;37.828;2022-08-07T01:10:13;25.40;72.60
40636;DHT22;26642;55.766;37.828;2022-08-07T01:12:41;25.40;72.70
40636;DHT22;26642;55.766;37.828;2022-08-07T01:15:08;25.30;72.80
40636;DHT22;26642;55.766;37.828;2022-08-07T01:17:35;25.30;73.00
40636;DHT22;26642;55.766;37.828;2022-08-07T01:20:10;25.30;73.00
40636;DHT22;26642;55.766;37.828;2022-08-07T01:22:37;25.20;73.00
40636;DHT22;26642;55.766;37.828;2022-08-07T01:25:05;25.20;73.00
40636;DHT22;26642;55.766;37.828;2022-08-07T01:27:31;25.20;73.20
40636;DHT22;26642;55.766;37.828;2022-08-07T01:29:58;25.20;73.20
40636;DHT22;26642;55.766;37.828;2022-08-07T01:32:26;25.20;73.20
40636;DHT22;26642;55.766;37.828;2022-08-07T01:34:53;25.20;73.30
40636;DHT22;26642;55.766;37.828;2022-08-07T01:37:20;25.20;73.40
40636;DHT22;26642;55.766;37.828;2022-08-07T01:39:49;25.10;73.90
40636;DHT22;26642;55.766;37.828;2022-08-07T01:42:24;25.10;73.30
40636;DHT22;26642;55.766;37.828;2022-08-07T01:44:52;25.10;73.30
40636;DHT22;26642;55.766;37.828;2022-08-07T01:47:18;25.10;73.30
40636;DHT22;26642;55.766;37.828;2022-08-07T01:49:45;25.10;73.40
40636;DHT22;26642;55.766;37.828;2022-08-07T01:52:11;25.00;73.40
40636;DHT22;26642;55.766;37.828;2022-08-07T01:54:39;25.00;73.40
40636;DHT22;26642;55.766;37.828;2022-08-07T01:57:18;25.00;73.60
40636;DHT22;26642;55.766;37.828;2022-08-07T02:02:28;25.00;73.50
40636;DHT22;26642;55.766;37.828;2022-08-07T02:08:03;25.00;73.50
40636;DHT22;26642;55.766;37.828;2022-08-07T02:10:38;24.90;73.60
40636;DHT22;26642;55.766;37.828;2022-08-07T02:13:08;24.90;73.80
40636;DHT22;26642;55.766;37.828;2022-08-07T02:15:45;24.90;73.80
40636;DHT22;26642;55.766;37.828;2022-08-07T02:18:12;24.90;73.90
40636;DHT22;26642;55.766;37.828;2022-08-07T02:20:41;24.90;73.90
40636;DHT22;26642;55.766;37.828;2022-08-07T02:23:07;24.90;74.00
40636;DHT22;26642;55.766;37.828;2022-08-07T02:25:36;24.90;73.90
40636;DHT22;26642;55.766;37.828;2022-08-07T02:28:03;24.90;74.40
40636;DHT22;26642;55.766;37.828;2022-08-07T02:30:35;24.90;73.70
40636;DHT22;26642;55.766;37.828;2022-08-07T02:33:04;24.90;73.70
40636;DHT22;26642;55.766;37.828;2022-08-07T02:35:33;24.90;73.70
40636;DHT22;26642;55.766;37.828;2022-08-07T02:38:01;24.90;73.80
40636;DHT22;26642;55.766;37.828;2022-08-07T02:40:30;24.80;74.00
40636;DHT22;26642;55.766;37.828;2022-08-07T02:42:58;24.80;73.90
40636;DHT22;26642;55.766;37.828;2022-08-07T02:45:27;24.90;73.90
40636;DHT22;26642;55.766;37.828;2022-08-07T02:47:55;24.90;73.70
40636;DHT22;26642;55.766;37.828;2022-08-07T02:50:22;25.00;73.60
40636;DHT22;26642;55.766;37.828;2022-08-07T02:52:53;25.00;73.40
40636;DHT22;26642;55.766;37.828;2022-08-07T02:55:26;25.10;73.20
40636;DHT22;26642;55.766;37.828;2022-08-07T02:57:55;25.10;73.10
40636;DHT22;26642;55.766;37.828;2022-08-07T03:00:25;25.10;73.10
40636;DHT22;26642;55.766;37.828;2022-08-07T03:02:53;25.10;73.20
40636;DHT22;26642;55.766;37.828;2022-08-07T03:05:22;25.00;73.00
40636;DHT22;26642;55.766;37.828;2022-08-07T03:07:49;25.00;73.10
40636;DHT22;26642;55.766;37.828;2022-08-07T03:10:17;25.00;73.20
40636;DHT22;26642;55.766;37.828;2022-08-07T03:12:45;25.00;73.40
40636;DHT22;26642;55.766;37.828;2022-08-07T03:15:13;25.00;73.20
40636;DHT22;26642;55.766;37.828;2022-08-07T03:17:41;25.00;72.90
40636;DHT22;26642;55.766;37.828;2022-08-07T03:20:10;25.00;72.80
40636;DHT22;26642;55.766;37.828;2022-08-07T03:22:39;25.00;73.00
40636;DHT22;26642;55.766;37.828;2022-08-07T03:25:07;25.00;73.10
40636;DHT22;26642;55.766;37.828;2022-08-07T03:27:41;24.90;73.10
40636;DHT22;26642;55.766;37.828;2022-08-07T03:30:12;24.90;73.40
40636;DHT22;26642;55.766;37.828;2022-08-07T03:32:41;24.90;73.40
40636;DHT22;26642;55.766;37.828;2022-08-07T03:35:13;24.90;73.40
40636;DHT22;26642;55.766;37.828;2022-08-07T03:37:43;24.90;73.40
40636;DHT22;26642;55.766;37.828;2022-08-07T03:40:10;24.90;73.50
40636;DHT22;26642;55.766;37.828;2022-08-07T03:42:37;24.80;73.60
40636;DHT22;26642;55.766;37.828;2022-08-07T03:45:05;24.80;73.70
40636;DHT22;26642;55.766;37.828;2022-08-07T03:47:32;24.80;73.60
40636;DHT22;26642;55.766;37.828;2022-08-07T03:49:58;24.90;73.60
40636;DHT22;26642;55.766;37.828;2022-08-07T03:52:31;24.80;73.40
40636;DHT22;26642;55.766;37.828;2022-08-07T03:55:02;24.80;73.50
40636;DHT22;26642;55.766;37.828;2022-08-07T03:57:30;24.80;73.60
40636;DHT22;26642;55.766;37.828;2022-08-07T03:59:57;24.80;73.50
40636;DHT22;26642;55.766;37.828;2022-08-07T04:02:24;24.80;73.40
40636;DHT22;26642;55.766;37.828;2022-08-07T04:04:50;24.90;73.40
40636;DHT22;26642;55.766;37.828;2022-08-07T04:07:17;24.90;73.50
40636;DHT22;26642;55.766;37.828;2022-08-07T04:09:47;25.00;73.40
40636;DHT22;26642;55.766;37.828;2022-08-07T04:12:14;25.20;72.80
40636;DHT22;26642;55.766;37.828;2022-08-07T04:14:42;25.40;72.40
40636;DHT22;26642;55.766;37.828;2022-08-07T04:17:09;25.60;71.70
40636;DHT22;26642;55.766;37.828;2022-08-07T04:19:35;25.70;71.10
40636;DHT22;26642;55.766;37.828;2022-08-07T04:22:04;25.90;70.40
40636;DHT22;26642;55.766;37.828;2022-08-07T04:24:34;26.10;69.90
40636;DHT22;26642;55.766;37.828;2022-08-07T04:27:04;26.30;69.70
40636;DHT22;26642;55.766;37.828;2022-08-07T04:29:31;26.40;69.00
40636;DHT22;26642;55.766;37.828;2022-08-07T04:31:58;26.60;68.40
40636;DHT22;26642;55.766;37.828;2022-08-07T04:34:24;26.80;68.10
40636;DHT22;26642;55.766;37.828;2022-08-07T04:36:50;26.90;68.30
40636;DHT22;26642;55.766;37.828;2022-08-07T04:39:16;27.10;67.20
40636;DHT22;26642;55.766;37.828;2022-08-07T04:41:42;27.20;67.00
40636;DHT22;26642;55.766;37.828;2022-08-07T04:44:08;27.40;66.60
40636;DHT22;26642;55.766;37.828;2022-08-07T04:47:07;27.60;66.10
40636;DHT22;26642;55.766;37.828;2022-08-07T04:49:46;27.70;65.50
40636;DHT22;26642;55.766;37.828;2022-08-07T04:52:23;27.90;64.90
40636;DHT22;26642;55.766;37.828;2022-08-07T04:55:05;28.10;64.80
40636;DHT22;26642;55.766;37.828;2022-08-07T04:58:05;28.20;64.60
40636;DHT22;26642;55.766;37.828;2022-08-07T05:06:01;28.70;62.90
40636;DHT22;26642;55.766;37.828;2022-08-07T05:08:43;28.80;62.20
40636;DHT22;26642;55.766;37.828;2022-08-07T05:11:23;28.90;62.40
40636;DHT22;26642;55.766;37.828;2022-08-07T05:14:13;29.00;62.40
40636;DHT22;26642;55.766;37.828;2022-08-07T05:16:42;29.10;63.10
40636;DHT22;26642;55.766;37.828;2022-08-07T05:19:19;29.30;64.00
40636;DHT22;26642;55.766;37.828;2022-08-07T05:21:52;29.50;62.40
40636;DHT22;26642;55.766;37.828;2022-08-07T05:24:20;29.60;61.70
40636;DHT22;26642;55.766;37.828;2022-08-07T05:29:49;29.70;60.60
40636;DHT22;26642;55.766;37.828;2022-08-07T05:32:18;29.80;60.90
40636;DHT22;26642;55.766;37.828;2022-08-07T05:34:46;29.90;60.30
40636;DHT22;26642;55.766;37.828;2022-08-07T05:37:15;30.00;61.90
40636;DHT22;26642;55.766;37.828;2022-08-07T05:39:51;30.10;60.10
40636;DHT22;26642;55.766;37.828;2022-08-07T05:42:18;30.20;60.00
40636;DHT22;26642;55.766;37.828;2022-08-07T05:44:45;30.30;61.50
40636;DHT22;26642;55.766;37.828;2022-08-07T05:47:11;30.40;62.50
40636;DHT22;26642;55.766;37.828;2022-08-07T05:49:39;30.50;61.90
40636;DHT22;26642;55.766;37.828;2022-08-07T05:52:06;30.70;61.30
40636;DHT22;26642;55.766;37.828;2022-08-07T05:54:33;31.00;60.70
40636;DHT22;26642;55.766;37.828;2022-08-07T05:57:02;31.20;58.80
40636;DHT22;26642;55.766;37.828;2022-08-07T05:59:31;31.50;57.80
40636;DHT22;26642;55.766;37.828;2022-08-07T06:02:01;31.60;57.40
40636;DHT22;26642;55.766;37.828;2022-08-07T06:04:29;31.60;59.10
40636;DHT22;26642;55.766;37.828;2022-08-07T06:06:55;31.60;58.20
40636;DHT22;26642;55.766;37.828;2022-08-07T06:09:22;31.60;59.30
40636;DHT22;26642;55.766;37.828;2022-08-07T06:11:49;31.60;58.10
40636;DHT22;26642;55.766;37.828;2022-08-07T06:14:17;31.60;59.60
40636;DHT22;26642;55.766;37.828;2022-08-07T06:16:46;31.60;59.70
40636;DHT22;26642;55.766;37.828;2022-08-07T06:19:14;31.80;58.60
40636;DHT22;26642;55.766;37.828;2022-08-07T06:21:42;31.60;59.10
40636;DHT22;26642;55.766;37.828;2022-08-07T06:24:10;31.50;57.40
40636;DHT22;26642;55.766;37.828;2022-08-07T06:26:39;31.50;57.50
40636;DHT22;26642;55.766;37.828;2022-08-07T06:29:07;31.40;59.10
40636;DHT22;26642;55.766;37.828;2022-08-07T06:31:34;31.40;59.70
40636;DHT22;26642;55.766;37.828;2022-08-07T06:34:00;31.40;59.40
40636;DHT22;26642;55.766;37.828;2022-08-07T06:36:26;31.40;58.20
40636;DHT22;26642;55.766;37.828;2022-08-07T06:38:56;31.40;57.30
40636;DHT22;26642;55.766;37.828;2022-08-07T06:41:41;31.30;58.10
40636;DHT22;26642;55.766;37.828;2022-08-07T06:44:10;31.40;59.50
40636;DHT22;26642;55.766;37.828;2022-08-07T06:46:39;31.40;58.90
40636;DHT22;26642;55.766;37.828;2022-08-07T06:49:05;31.50;58.60
40636;DHT22;26642;55.766;37.828;2022-08-07T06:51:35;31.40;58.70
40636;DHT22;26642;55.766;37.828;2022-08-07T06:54:06;31.40;56.80
40636;DHT22;26642;55.766;37.828;2022-08-07T06:56:35;31.30;56.90
40636;DHT22;26642;55.766;37.828;2022-08-07T06:59:17;31.30;58.80
40636;DHT22;26642;55.766;37.828;2022-08-07T07:01:48;31.30;58.40
40636;DHT22;26642;55.766;37.828;2022-08-07T07:04:15;31.40;57.20
40636;DHT22;26642;55.766;37.828;2022-08-07T07:06:42;31.40;57.80
40636;DHT22;26642;55.766;37.828;2022-08-07T07:12:00;31.40;57.50
40636;DHT22;26642;55.766;37.828;2022-08-07T07:14:52;31.40;57.30
40636;DHT22;26642;55.766;37.828;2022-08-07T07:17:44;31.40;57.80
40636;DHT22;26642;55.766;37.828;2022-08-07T07:20:20;31.40;57.40
40636;DHT22;26642;55.766;37.828;2022-08-07T07:22:48;31.30;58.20
40636;DHT22;26642;55.766;37.828;2022-08-07T07:25:17;31.30;58.60
40636;DHT22;26642;55.766;37.828;2022-08-07T07:27:55;31.30;58.90
40636;DHT22;26642;55.766;37.828;2022-08-07T07:30:26;31.30;59.50
40636;DHT22;26642;55.766;37.828;2022-08-07T07:32:56;31.20;59.70
40636;DHT22;26642;55.766;37.828;2022-08-07T07:35:24;31.10;60.00
40636;DHT22;26642;55.766;37.828;2022-08-07T07:37:51;31.10;60.20
40636;DHT22;26642;55.766;37.828;2022-08-07T07:40:20;31.20;60.30
40636;DHT22;26642;55.766;37.828;2022-08-07T07:42:50;31.20;60.20
40636;DHT22;26642;55.766;37.828;2022-08-07T07:45:24;31.20;60.00
40636;DHT22;26642;55.766;37.828;2022-08-07T07:47:52;31.20;60.10
40636;DHT22;26642;55.766;37.828;2022-08-07T07:50:23;31.20;60.10
40636;DHT22;26642;55.766;37.828;2022-08-07T07:52:50;31.20;60.00
40636;DHT22;26642;55.766;37.828;2022-08-07T07:55:18;31.20;59.00
40636;DHT22;26642;55.766;37.828;2022-08-07T07:57:48;31.20;59.10
40636;DHT22;26642;55.766;37.828;2022-08-07T08:00:15;31.20;58.90
40636;DHT22;26642;55.766;37.828;2022-08-07T08:02:41;31.20;59.10
40636;DHT22;26642;55.766;37.828;2022-08-07T08:05:10;31.20;58.40
40636;DHT22;26642;55.766;37.828;2022-08-07T08:07:38;31.20;56.70
40636;DHT22;26642;55.766;37.828;2022-08-07T08:10:06;31.20;57.00
40636;DHT22;26642;55.766;37.828;2022-08-07T08:12:34;31.20;57.30
40636;DHT22;26642;55.766;37.828;2022-08-07T08:15:00;31.20;57.60
40636;DHT22;26642;55.766;37.828;2022-08-07T08:17:27;31.10;57.10
40636;DHT22;26642;55.766;37.828;2022-08-07T08:19:59;31.10;56.80
40636;DHT22;26642;55.766;37.828;2022-08-07T08:22:29;31.20;57.30
40636;DHT22;26642;55.766;37.828;2022-08-07T08:25:15;31.20;56.80
40636;DHT22;26642;55.766;37.828;2022-08-07T08:28:02;31.30;55.90
40636;DHT22;26642;55.766;37.828;2022-08-07T08:30:32;31.30;56.20
40636;DHT22;26642;55.766;37.828;2022-08-07T08:33:01;31.30;56.00
40636;DHT22;26642;55.766;37.828;2022-08-07T08:35:28;31.30;56.20
40636;DHT22;26642;55.766;37.828;2022-08-07T08:37:58;31.20;56.60
40636;DHT22;26642;55.766;37.828;2022-08-07T08:40:42;31.10;56.50
40636;DHT22;26642;55.766;37.828;2022-08-07T08:46:07;31.10;56.20
40636;DHT22;26642;55.766;37.828;2022-08-07T08:54:09;31.00;56.70
40636;DHT22;26642;55.766;37.828;2022-08-07T08:56:43;31.00;56.60
40636;DHT22;26642;55.766;37.828;2022-08-07T08:59:38;31.00;57.10
40636;DHT22;26642;55.766;37.828;2022-08-07T09:04:45;31.00;58.20
40636;DHT22;26642;55.766;37.828;2022-08-07T09:10:06;31.00;60.60
40636;DHT22;26642;55.766;37.828;2022-08-07T09:18:38;31.10;59.20
40636;DHT22;26642;55.766;37.828;2022-08-07T09:21:35;31.00;59.90
40636;DHT22;26642;55.766;37.828;2022-08-07T09:26:50;31.00;58.20
40636;DHT22;26642;55.766;37.828;2022-08-07T09:35:37;31.00;56.20
40636;DHT22;26642;55.766;37.828;2022-08-07T09:52:47;31.00;57.00
40636;DHT22;26642;55.766;37.828;2022-08-07T09:55:12;31.00;57.60
40636;DHT22;26642;55.766;37.828;2022-08-07T10:00:20;31.00;57.70
40636;DHT22;26642;55.766;37.828;2022-08-07T10:05:47;31.00;57.90
40636;DHT22;26642;55.766;37.828;2022-08-07T10:11:26;31.00;57.50
40636;DHT22;26642;55.766;37.828;2022-08-07T10:20:03;30.90;56.50
40636;DHT22;26642;55.766;37.828;2022-08-07T10:23:10;30.70;57.20
40636;DHT22;26642;55.766;37.828;2022-08-07T10:38:01;29.40;62.30
40636;DHT22;26642;55.766;37.828;2022-08-07T10:40:46;29.40;63.10
40636;DHT22;26642;55.766;37.828;2022-08-07T10:43:34;29.40;64.70
40636;DHT22;26642;55.766;37.828;2022-08-07T10:46:14;29.50;65.20
40636;DHT22;26642;55.766;37.828;2022-08-07T10:48:54;29.40;66.20
40636;DHT22;26642;55.766;37.828;2022-08-07T10:54:13;29.20;67.60
40636;DHT22;26642;55.766;37.828;2022-08-07T11:05:12;29.40;69.80
40636;DHT22;26642;55.766;37.828;2022-08-07T11:16:19;29.60;70.50
40636;DHT22;26642;55.766;37.828;2022-08-07T11:21:44;29.70;70.40
40636;DHT22;26642;55.766;37.828;2022-08-07T11:24:17;29.80;69.80
40636;DHT22;26642;55.766;37.828;2022-08-07T11:30:25;29.90;68.80
40636;DHT22;26642;55.766;37.828;2022-08-07T11:38:25;30.00;66.40
40636;DHT22;26642;55.766;37.828;2022-08-07T11:43:28;30.00;66.80
40636;DHT22;26642;55.766;37.828;2022-08-07T11:51:49;30.00;66.60
40636;DHT22;26642;55.766;37.828;2022-08-07T12:08:21;30.00;65.30
40636;DHT22;26642;55.766;37.828;2022-08-07T12:11:02;30.00;65.40
40636;DHT22;26642;55.766;37.828;2022-08-07T12:16:24;29.90;65.50
40636;DHT22;26642;55.766;37.828;2022-08-07T12:19:00;29.90;65.60
40636;DHT22;26642;55.766;37.828;2022-08-07T12:21:54;29.80;64.90
40636;DHT22;26642;55.766;37.828;2022-08-07T12:24:26;29.80;65.10
40636;DHT22;26642;55.766;37.828;2022-08-07T12:27:18;29.70;65.90
40636;DHT22;26642;55.766;37.828;2022-08-07T12:29:53;29.70;65.10
40636;DHT22;26642;55.766;37.828;2022-08-07T12:32:30;29.70;65.10
40636;DHT22;26642;55.766;37.828;2022-08-07T12:35:02;29.70;65.10
40636;DHT22;26642;55.766;37.828;2022-08-07T12:37:29;29.70;65.00
40636;DHT22;26642;55.766;37.828;2022-08-07T12:39:57;29.70;64.70
40636;DHT22;26642;55.766;37.828;2022-08-07T12:42:26;29.60;64.60
40636;DHT22;26642;55.766;37.828;2022-08-07T12:44:53;29.60;64.70
40636;DHT22;26642;55.766;37.828;2022-08-07T12:50:07;29.60;64.20
40636;DHT22;26642;55.766;37.828;2022-08-07T12:52:46;29.60;64.40
40636;DHT22;26642;55.766;37.828;2022-08-07T12:55:28;29.50;64.50
40636;DHT22;26642;55.766;37.828;2022-08-07T12:57:58;29.50;64.60
40636;DHT22;26642;55.766;37.828;2022-08-07T13:06:19;29.50;64.50
40636;DHT22;26642;55.766;37.828;2022-08-07T13:11:59;29.50;64.60
40636;DHT22;26642;55.766;37.828;2022-08-07T13:14:45;29.40;64.50
40636;DHT22;26642;55.766;37.828;2022-08-07T13:17:34;29.40;64.10
40636;DHT22;26642;55.766;37.828;2022-08-07T13:20:24;29.40;64.00
40636;DHT22;26642;55.766;37.828;2022-08-07T13:23:03;29.40;64.00
40636;DHT22;26642;55.766;37.828;2022-08-07T13:25:37;29.40;63.70
40636;DHT22;26642;55.766;37.828;2022-08-07T13:28:11;29.30;63.60
40636;DHT22;26642;55.766;37.828;2022-08-07T13:30:42;29.30;63.30
40636;DHT22;26642;55.766;37.828;2022-08-07T13:35:46;29.30;63.30
40636;DHT22;26642;55.766;37.828;2022-08-07T13:38:19;29.30;62.90
40636;DHT22;26642;55.766;37.828;2022-08-07T13:43:41;29.30;62.80
40636;DHT22;26642;55.766;37.828;2022-08-07T13:46:09;29.20;63.40
40636;DHT22;26642;55.766;37.828;2022-08-07T13:48:38;29.10;62.60
40636;DHT22;26642;55.766;37.828;2022-08-07T13:51:06;29.10;63.00
40636;DHT22;26642;55.766;37.828;2022-08-07T13:53:36;29.00;62.80
40636;DHT22;26642;55.766;37.828;2022-08-07T13:56:04;29.00;63.20
40636;DHT22;26642;55.766;37.828;2022-08-07T13:58:40;28.90;63.70
40636;DHT22;26642;55.766;37.828;2022-08-07T14:01:32;28.90;63.20
40636;DHT22;26642;55.766;37.828;2022-08-07T14:04:14;28.90;63.00
40636;DHT22;26642;55.766;37.828;2022-08-07T14:06:43;28.80;63.20
40636;DHT22;26642;55.766;37.828;2022-08-07T14:09:30;28.80;64.00
40636;DHT22;26642;55.766;37.828;2022-08-07T14:15:56;28.70;64.20
40636;DHT22;26642;55.766;37.828;2022-08-07T14:18:52;28.70;63.40
40636;DHT22;26642;55.766;37.828;2022-08-07T14:21:26;28.60;63.90
40636;DHT22;26642;55.766;37.828;2022-08-07T14:24:04;28.60;64.70
40636;DHT22;26642;55.766;37.828;2022-08-07T14:26:48;28.50;64.30
40636;DHT22;26642;55.766;37.828;2022-08-07T14:29:19;28.50;64.90
40636;DHT22;26642;55.766;37.828;2022-08-07T14:31:48;28.40;65.20
40636;DHT22;26642;55.766;37.828;2022-08-07T14:34:43;28.40;65.20
40636;DHT22;26642;55.766;37.828;2022-08-07T14:37:12;28.40;65.70
40636;DHT22;26642;55.766;37.828;2022-08-07T14:39:42;28.30;65.70
40636;DHT22;26642;55.766;37.828;2022-08-07T14:42:09;28.30;65.90
40636;DHT22;26642;55.766;37.828;2022-08-07T14:44:42;28.30;65.50
40636;DHT22;26642;55.766;37.828;2022-08-07T14:47:11;28.20;64.50
40636;DHT22;26642;55.766;37.828;2022-08-07T14:49:39;28.20;64.50
40636;DHT22;26642;55.766;37.828;2022-08-07T14:52:07;28.10;63.00
40636;DHT22;26642;55.766;37.828;2022-08-07T14:54:35;28.00;63.60
40636;DHT22;26642;55.766;37.828;2022-08-07T14:57:05;28.00;64.20
40636;DHT22;26642;55.766;37.828;2022-08-07T14:59:36;28.00;64.00
40636;DHT22;26642;55.766;37.828;2022-08-07T15:02:16;27.90;64.00
40636;DHT22;26642;55.766;37.828;2022-08-07T15:04:45;27.90;63.70
40636;DHT22;26642;55.766;37.828;2022-08-07T15:07:22;27.90;63.70
40636;DHT22;26642;55.766;37.828;2022-08-07T15:09:51;27.90;63.60
40636;DHT22;26642;55.766;37.828;2022-08-07T15:12:25;27.80;63.50
40636;DHT22;26642;55.766;37.828;2022-08-07T15:15:10;27.80;63.40
40636;DHT22;26642;55.766;37.828;2022-08-07T15:17:41;27.70;63.20
40636;DHT22;26642;55.766;37.828;2022-08-07T15:20:10;27.70;63.60
40636;DHT22;26642;55.766;37.828;2022-08-07T15:22:49;27.70;63.80
40636;DHT22;26642;55.766;37.828;2022-08-07T15:25:23;27.70;63.30
40636;DHT22;26642;55.766;37.828;2022-08-07T15:27:55;27.70;63.30
40636;DHT22;26642;55.766;37.828;2022-08-07T15:30:22;27.60;63.10
40636;DHT22;26642;55.766;37.828;2022-08-07T15:32:51;27.60;63.20
40636;DHT22;26642;55.766;37.828;2022-08-07T15:35:19;27.60;63.30
40636;DHT22;26642;55.766;37.828;2022-08-07T15:37:56;27.50;63.30
40636;DHT22;26642;55.766;37.828;2022-08-07T15:40:26;27.50;63.80
40636;DHT22;26642;55.766;37.828;2022-08-07T15:42:55;27.50;63.80
40636;DHT22;26642;55.766;37.828;2022-08-07T15:50:43;27.50;64.20
40636;DHT22;26642;55.766;37.828;2022-08-07T15:53:34;27.50;64.30
40636;DHT22;26642;55.766;37.828;2022-08-07T15:56:05;27.50;64.20
40636;DHT22;26642;55.766;37.828;2022-08-07T15:58:55;27.50;64.20
40636;DHT22;26642;55.766;37.828;2022-08-07T16:01:32;27.50;64.40
40636;DHT22;26642;55.766;37.828;2022-08-07T16:04:01;27.50;64.90
40636;DHT22;26642;55.766;37.828;2022-08-07T16:06:34;27.50;64.40
40636;DHT22;26642;55.766;37.828;2022-08-07T16:09:11;27.40;63.40
40636;DHT22;26642;55.766;37.828;2022-08-07T16:12:07;27.30;63.20
40636;DHT22;26642;55.766;37.828;2022-08-07T16:17:48;27.00;64.00
40636;DHT22;26642;55.766;37.828;2022-08-07T16:28:01;26.70;64.20
40636;DHT22;26642;55.766;37.828;2022-08-07T16:30:33;26.70;64.40
40636;DHT22;26642;55.766;37.828;2022-08-07T16:33:10;26.70;64.70
40636;DHT22;26642;55.766;37.828;2022-08-07T16:35:42;26.60;64.40
40636;DHT22;26642;55.766;37.828;2022-08-07T16:38:29;26.60;64.30
40636;DHT22;26642;55.766;37.828;2022-08-07T16:47:18;26.50;65.10
40636;DHT22;26642;55.766;37.828;2022-08-07T16:52:41;26.50;66.20
40636;DHT22;26642;55.766;37.828;2022-08-07T16:57:51;26.40;66.00
40636;DHT22;26642;55.766;37.828;2022-08-07T17:00:19;26.40;66.30
40636;DHT22;26642;55.766;37.828;2022-08-07T17:02:54;26.40;66.70
40636;DHT22;26642;55.766;37.828;2022-08-07T17:09:28;26.50;66.40
40636;DHT22;26642;55.766;37.828;2022-08-07T17:12:27;26.50;67.30
40636;DHT22;26642;55.766;37.828;2022-08-07T17:17:36;26.50;66.00
40636;DHT22;26642;55.766;37.828;2022-08-07T17:20:12;26.40;65.90
40636;DHT22;26642;55.766;37.828;2022-08-07T17:22:54;26.30;66.00
40636;DHT22;26642;55.766;37.828;2022-08-07T17:25:30;26.30;66.20
40636;DHT22;26642;55.766;37.828;2022-08-07T17:28:17;26.20;66.70
40636;DHT22;26642;55.766;37.828;2022-08-07T17:30:59;26.20;66.60
40636;DHT22;26642;55.766;37.828;2022-08-07T17:33:32;26.20;66.70
40636;DHT22;26642;55.766;37.828;2022-08-07T17:36:11;26.10;66.40
40636;DHT22;26642;55.766;37.828;2022-08-07T17:39:11;26.10;66.70
40636;DHT22;26642;55.766;37.828;2022-08-07T17:42:06;26.10;66.70
40636;DHT22;26642;55.766;37.828;2022-08-07T17:47:23;25.90;67.20
40636;DHT22;26642;55.766;37.828;2022-08-07T17:49:56;25.90;67.70
40636;DHT22;26642;55.766;37.828;2022-08-07T17:55:13;25.90;68.00
40636;DHT22;26642;55.766;37.828;2022-08-07T17:58:05;25.90;68.70
40636;DHT22;26642;55.766;37.828;2022-08-07T18:00:34;25.90;68.10
40636;DHT22;26642;55.766;37.828;2022-08-07T18:03:14;25.90;68.30
40636;DHT22;26642;55.766;37.828;2022-08-07T18:05:52;25.90;69.30
40636;DHT22;26642;55.766;37.828;2022-08-07T18:08:34;25.80;69.10
40636;DHT22;26642;55.766;37.828;2022-08-07T18:13:55;25.70;69.30
40636;DHT22;26642;55.766;37.828;2022-08-07T18:16:51;25.70;70.40
40636;DHT22;26642;55.766;37.828;2022-08-07T18:22:12;25.70;69.50
40636;DHT22;26642;55.766;37.828;2022-08-07T18:24:57;25.70;70.00
40636;DHT22;26642;55.766;37.828;2022-08-07T18:27:52;25.70;69.60
40636;DHT22;26642;55.766;37.828;2022-08-07T18:30:31;25.60;68.90
40636;DHT22;26642;55.766;37.828;2022-08-07T18:41:16;25.60;69.20
40636;DHT22;26642;55.766;37.828;2022-08-07T18:44:20;25.50;69.30
40636;DHT22;26642;55.766;37.828;2022-08-07T18:47:16;25.60;70.30
40636;DHT22;26642;55.766;37.828;2022-08-07T18:52:30;25.60;70.90
40636;DHT22;26642;55.766;37.828;2022-08-07T18:55:28;25.50;71.20
40636;DHT22;26642;55.766;37.828;2022-08-07T19:00:20;25.40;73.00
40636;DHT22;26642;55.766;37.828;2022-08-07T19:10:28;25.40;72.50
40636;DHT22;26642;55.766;37.828;2022-08-07T19:13:13;25.40;72.50
40636;DHT22;26642;55.766;37.828;2022-08-07T19:16:03;25.50;72.10
40636;DHT22;26642;55.766;37.828;2022-08-07T19:23:58;25.60;72.40
40636;DHT22;26642;55.766;37.828;2022-08-07T19:26:32;25.60;72.10
40636;DHT22;26642;55.766;37.828;2022-08-07T19:29:00;25.60;72.20
40636;DHT22;26642;55.766;37.828;2022-08-07T19:31:32;25.70;72.20
40636;DHT22;26642;55.766;37.828;2022-08-07T19:34:01;25.70;72.10
40636;DHT22;26642;55.766;37.828;2022-08-07T19:36:28;25.70;72.60
40636;DHT22;26642;55.766;37.828;2022-08-07T19:38:57;25.70;72.80
40636;DHT22;26642;55.766;37.828;2022-08-07T19:41:33;25.70;73.00
40636;DHT22;26642;55.766;37.828;2022-08-07T19:44:03;25.70;72.70
40636;DHT22;26642;55.766;37.828;2022-08-07T19:46:34;25.70;72.30